sensor_id;sensor_type;location;lat;lon;timestamp;P1;durP1;ratioP1;P2;durP2;ratioP2
37891;SDS011;45797;47.466;9.486;2022-11-20T00:04:13;2.15;;;1.13;;
37891;SDS011;45797;47.466;9.486;2022-11-20T00:09:13;3.33;;;1.65;;
37891;SDS011;45797;47.466;9.486;2022-11-20T00:14:14;3.35;;;1.50;;
37891;SDS011;45797;47.466;9.486;2022-11-20T00:19:15;2.92;;;1.23;;
37891;SDS011;45797;47.466;9.486;2022-11-20T00:24:17;4.57;;;1.58;;
37891;SDS011;45797;47.466;9.486;2022-11-20T00:29:18;3.85;;;1.42;;
37891;SDS011;45797;47.466;9.486;2022-11-20T00:34:19;2.85;;;1.05;;
37891;SDS011;45797;47.466;9.486;2022-11-20T00:39:26;2.53;;;1.20;;
37891;SDS011;45797;47.466;9.486;2022-11-20T00:44:28;2.65;;;1.10;;
37891;SDS011;45797;47.466;9.486;2022-11-20T00:49:30;3.45;;;1.42;;
37891;SDS011;45797;47.466;9.486;2022-11-20T00:54:31;2.58;;;1.25;;
37891;SDS011;45797;47.466;9.486;2022-11-20T00:59:31;2.05;;;1.00;;
37891;SDS011;45797;47.466;9.486;2022-11-20T01:04:33;3.17;;;1.10;;
37891;SDS011;45797;47.466;9.486;2022-11-20T01:09:33;4.00;;;1.10;;
37891;SDS011;45797;47.466;9.486;2022-11-20T01:14:34;2.40;;;1.00;;
37891;SDS011;45797;47.466;9.486;2022-11-20T01:19:36;2.35;;;1.00;;
37891;SDS011;45797;47.466;9.486;2022-11-20T01:24:36;2.30;;;1.20;;
37891;SDS011;45797;47.466;9.486;2022-11-20T01:29:43;2.40;;;1.30;;
37891;SDS011;45797;47.466;9.486;2022-11-20T01:34:43;2.92;;;1.10;;
37891;SDS011;45797;47.466;9.486;2022-11-20T01:39:51;4.82;;;1.13;;
37891;SDS011;45797;47.466;9.486;2022-11-20T01:50:16;2.00;;;1.00;;
37891;SDS011;45797;47.466;9.486;2022-11-20T01:55:22;2.45;;;1.00;;
37891;SDS011;45797;47.466;9.486;2022-11-20T02:00:37;2.42;;;1.00;;
37891;SDS011;45797;47.466;9.486;2022-11-20T02:05:47;2.85;;;1.35;;
37891;SDS011;45797;47.466;9.486;2022-11-20T02:10:52;2.47;;;1.10;;
37891;SDS011;45797;47.466;9.486;2022-11-20T02:15:54;2.35;;;1.00;;
37891;SDS011;45797;47.466;9.486;2022-11-20T02:26:33;2.17;;;1.10;;
37891;SDS011;45797;47.466;9.486;2022-11-20T02:31:41;1.58;;;0.90;;
37891;SDS011;45797;47.466;9.486;2022-11-20T02:36:44;1.65;;;0.80;;
37891;SDS011;45797;47.466;9.486;2022-11-20T02:41:46;2.30;;;1.00;;
37891;SDS011;45797;47.466;9.486;2022-11-20T02:51:50;2.55;;;1.17;;
37891;SDS011;45797;47.466;9.486;2022-11-20T02:56:53;2.13;;;1.08;;
37891;SDS011;45797;47.466;9.486;2022-11-20T03:01:53;2.58;;;0.98;;
37891;SDS011;45797;47.466;9.486;2022-11-20T03:07:03;2.92;;;1.30;;
37891;SDS011;45797;47.466;9.486;2022-11-20T03:12:04;4.57;;;0.90;;
37891;SDS011;45797;47.466;9.486;2022-11-20T03:17:07;1.38;;;0.80;;
37891;SDS011;45797;47.466;9.486;2022-11-20T03:22:09;2.35;;;1.05;;
37891;SDS011;45797;47.466;9.486;2022-11-20T03:27:10;3.80;;;1.70;;
37891;SDS011;45797;47.466;9.486;2022-11-20T03:32:10;2.17;;;1.10;;
37891;SDS011;45797;47.466;9.486;2022-11-20T03:37:11;2.38;;;1.10;;
37891;SDS011;45797;47.466;9.486;2022-11-20T03:42:12;2.20;;;1.00;;
37891;SDS011;45797;47.466;9.486;2022-11-20T03:47:30;2.40;;;1.10;;
37891;SDS011;45797;47.466;9.486;2022-11-20T03:57:41;3.42;;;1.10;;
37891;SDS011;45797;47.466;9.486;2022-11-20T04:02:43;2.47;;;1.20;;
37891;SDS011;45797;47.466;9.486;2022-11-20T04:07:51;2.70;;;1.10;;
37891;SDS011;45797;47.466;9.486;2022-11-20T04:18:15;2.47;;;1.30;;
37891;SDS011;45797;47.466;9.486;2022-11-20T04:23:15;3.03;;;1.25;;
37891;SDS011;45797;47.466;9.486;2022-11-20T04:28:23;2.90;;;1.35;;
37891;SDS011;45797;47.466;9.486;2022-11-20T04:38:58;3.30;;;1.25;;
37891;SDS011;45797;47.466;9.486;2022-11-20T04:44:09;2.83;;;1.38;;
37891;SDS011;45797;47.466;9.486;2022-11-20T04:54:25;2.20;;;1.10;;
37891;SDS011;45797;47.466;9.486;2022-11-20T04:59:26;2.97;;;1.10;;
37891;SDS011;45797;47.466;9.486;2022-11-20T05:04:28;2.28;;;1.10;;
37891;SDS011;45797;47.466;9.486;2022-11-20T05:09:39;3.13;;;1.25;;
37891;SDS011;45797;47.466;9.486;2022-11-20T05:14:39;3.95;;;1.25;;
37891;SDS011;45797;47.466;9.486;2022-11-20T05:24:44;2.80;;;1.05;;
37891;SDS011;45797;47.466;9.486;2022-11-20T05:29:45;2.45;;;1.05;;
37891;SDS011;45797;47.466;9.486;2022-11-20T05:34:46;2.47;;;1.13;;
37891;SDS011;45797;47.466;9.486;2022-11-20T05:39:48;2.40;;;1.17;;
37891;SDS011;45797;47.466;9.486;2022-11-20T05:44:49;1.60;;;0.80;;
37891;SDS011;45797;47.466;9.486;2022-11-20T05:49:51;2.22;;;0.98;;
37891;SDS011;45797;47.466;9.486;2022-11-20T06:00:20;2.20;;;1.02;;
37891;SDS011;45797;47.466;9.486;2022-11-20T06:05:22;1.88;;;0.90;;
37891;SDS011;45797;47.466;9.486;2022-11-20T06:10:24;1.73;;;0.82;;
37891;SDS011;45797;47.466;9.486;2022-11-20T06:15:25;2.55;;;1.02;;
37891;SDS011;45797;47.466;9.486;2022-11-20T06:20:27;2.05;;;0.93;;
37891;SDS011;45797;47.466;9.486;2022-11-20T06:25:27;1.90;;;1.00;;
37891;SDS011;45797;47.466;9.486;2022-11-20T06:30:44;2.33;;;1.05;;
37891;SDS011;45797;47.466;9.486;2022-11-20T06:35:45;2.55;;;0.93;;
37891;SDS011;45797;47.466;9.486;2022-11-20T06:40:46;1.67;;;0.80;;
37891;SDS011;45797;47.466;9.486;2022-11-20T06:45:46;2.17;;;1.00;;
37891;SDS011;45797;47.466;9.486;2022-11-20T06:50:50;1.85;;;0.90;;
37891;SDS011;45797;47.466;9.486;2022-11-20T06:56:01;1.70;;;0.80;;
37891;SDS011;45797;47.466;9.486;2022-11-20T07:01:03;2.38;;;1.20;;
37891;SDS011;45797;47.466;9.486;2022-11-20T07:11:19;2.95;;;1.10;;
37891;SDS011;45797;47.466;9.486;2022-11-20T07:16:19;2.65;;;1.23;;
37891;SDS011;45797;47.466;9.486;2022-11-20T07:21:28;2.08;;;1.10;;
37891;SDS011;45797;47.466;9.486;2022-11-20T07:26:45;3.83;;;1.02;;
37891;SDS011;45797;47.466;9.486;2022-11-20T07:31:56;2.10;;;0.85;;
37891;SDS011;45797;47.466;9.486;2022-11-20T07:36:56;3.38;;;1.10;;
37891;SDS011;45797;47.466;9.486;2022-11-20T07:47:00;2.30;;;0.82;;
37891;SDS011;45797;47.466;9.486;2022-11-20T07:52:12;2.00;;;0.80;;
37891;SDS011;45797;47.466;9.486;2022-11-20T07:57:17;4.82;;;1.20;;
37891;SDS011;45797;47.466;9.486;2022-11-20T08:02:18;2.35;;;1.30;;
37891;SDS011;45797;47.466;9.486;2022-11-20T08:07:19;2.25;;;0.95;;
37891;SDS011;45797;47.466;9.486;2022-11-20T08:12:21;2.33;;;1.20;;
37891;SDS011;45797;47.466;9.486;2022-11-20T08:17:40;2.42;;;1.08;;
37891;SDS011;45797;47.466;9.486;2022-11-20T08:22:57;3.03;;;1.05;;
37891;SDS011;45797;47.466;9.486;2022-11-20T08:28:08;2.65;;;1.00;;
37891;SDS011;45797;47.466;9.486;2022-11-20T08:33:09;3.03;;;1.30;;
37891;SDS011;45797;47.466;9.486;2022-11-20T08:38:10;1.65;;;0.82;;
37891;SDS011;45797;47.466;9.486;2022-11-20T08:43:14;1.42;;;0.90;;
37891;SDS011;45797;47.466;9.486;2022-11-20T08:48:24;3.60;;;0.85;;
37891;SDS011;45797;47.466;9.486;2022-11-20T08:53:26;1.58;;;0.80;;
37891;SDS011;45797;47.466;9.486;2022-11-20T08:58:35;2.40;;;0.93;;
37891;SDS011;45797;47.466;9.486;2022-11-20T09:14:14;1.63;;;0.68;;
37891;SDS011;45797;47.466;9.486;2022-11-20T09:19:16;1.70;;;0.80;;
37891;SDS011;45797;47.466;9.486;2022-11-20T09:24:16;2.05;;;0.77;;
37891;SDS011;45797;47.466;9.486;2022-11-20T09:34:20;1.52;;;0.70;;
37891;SDS011;45797;47.466;9.486;2022-11-20T09:39:21;1.42;;;0.65;;
37891;SDS011;45797;47.466;9.486;2022-11-20T09:54:55;1.45;;;0.80;;
37891;SDS011;45797;47.466;9.486;2022-11-20T09:59:56;1.50;;;0.70;;
37891;SDS011;45797;47.466;9.486;2022-11-20T10:05:09;1.88;;;0.80;;
37891;SDS011;45797;47.466;9.486;2022-11-20T10:15:53;1.60;;;0.65;;
37891;SDS011;45797;47.466;9.486;2022-11-20T10:21:32;1.48;;;0.68;;
37891;SDS011;45797;47.466;9.486;2022-11-20T10:32:13;1.38;;;0.73;;
37891;SDS011;45797;47.466;9.486;2022-11-20T10:37:26;2.45;;;0.70;;
37891;SDS011;45797;47.466;9.486;2022-11-20T10:42:49;1.48;;;0.60;;
37891;SDS011;45797;47.466;9.486;2022-11-20T11:14:51;1.35;;;0.70;;
37891;SDS011;45797;47.466;9.486;2022-11-20T11:20:01;2.00;;;0.80;;
37891;SDS011;45797;47.466;9.486;2022-11-20T11:25:09;0.95;;;0.50;;
37891;SDS011;45797;47.466;9.486;2022-11-20T11:35:48;3.72;;;0.70;;
37891;SDS011;45797;47.466;9.486;2022-11-20T11:40:56;1.52;;;0.70;;
37891;SDS011;45797;47.466;9.486;2022-11-20T11:45:57;1.17;;;0.60;;
37891;SDS011;45797;47.466;9.486;2022-11-20T11:51:19;1.65;;;0.70;;
37891;SDS011;45797;47.466;9.486;2022-11-20T11:56:20;2.50;;;0.70;;
37891;SDS011;45797;47.466;9.486;2022-11-20T12:01:35;1.33;;;0.63;;
37891;SDS011;45797;47.466;9.486;2022-11-20T12:06:44;1.45;;;0.80;;
37891;SDS011;45797;47.466;9.486;2022-11-20T12:11:53;1.02;;;0.60;;
37891;SDS011;45797;47.466;9.486;2022-11-20T12:17:00;1.40;;;0.70;;
37891;SDS011;45797;47.466;9.486;2022-11-20T12:38:29;1.77;;;0.80;;
37891;SDS011;45797;47.466;9.486;2022-11-20T12:43:54;1.05;;;0.50;;
37891;SDS011;45797;47.466;9.486;2022-11-20T13:00:21;1.40;;;0.80;;
37891;SDS011;45797;47.466;9.486;2022-11-20T13:11:27;41.90;;;16.13;;
37891;SDS011;45797;47.466;9.486;2022-11-20T13:16:50;130.82;;;44.85;;
37891;SDS011;45797;47.466;9.486;2022-11-20T13:22:01;228.43;;;78.25;;
37891;SDS011;45797;47.466;9.486;2022-11-20T13:27:17;252.10;;;96.25;;
37891;SDS011;45797;47.466;9.486;2022-11-20T13:32:24;60.33;;;27.17;;
37891;SDS011;45797;47.466;9.486;2022-11-20T13:37:36;82.43;;;26.30;;
37891;SDS011;45797;47.466;9.486;2022-11-20T13:43:27;56.05;;;24.10;;
37891;SDS011;45797;47.466;9.486;2022-11-20T13:48:24;59.50;;;31.98;;
37891;SDS011;45797;47.466;9.486;2022-11-20T14:04:18;4.90;;;2.55;;
37891;SDS011;45797;47.466;9.486;2022-11-20T14:09:30;289.60;;;129.40;;
37891;SDS011;45797;47.466;9.486;2022-11-20T14:14:34;191.05;;;71.55;;
37891;SDS011;45797;47.466;9.486;2022-11-20T14:19:48;141.68;;;57.22;;
37891;SDS011;45797;47.466;9.486;2022-11-20T14:25:06;322.63;;;108.53;;
37891;SDS011;45797;47.466;9.486;2022-11-20T14:30:36;148.05;;;55.38;;
37891;SDS011;45797;47.466;9.486;2022-11-20T14:35:50;11.45;;;7.65;;
37891;SDS011;45797;47.466;9.486;2022-11-20T14:41:08;7.13;;;5.50;;
37891;SDS011;45797;47.466;9.486;2022-11-20T14:46:19;5.68;;;4.25;;
37891;SDS011;45797;47.466;9.486;2022-11-20T14:56:35;4.45;;;3.08;;
37891;SDS011;45797;47.466;9.486;2022-11-20T15:01:39;4.63;;;2.50;;
37891;SDS011;45797;47.466;9.486;2022-11-20T15:07:00;2.83;;;1.67;;
37891;SDS011;45797;47.466;9.486;2022-11-20T15:12:01;6.90;;;3.85;;
37891;SDS011;45797;47.466;9.486;2022-11-20T15:17:06;15.70;;;8.13;;
37891;SDS011;45797;47.466;9.486;2022-11-20T15:22:12;4.90;;;2.90;;
37891;SDS011;45797;47.466;9.486;2022-11-20T15:27:17;2.10;;;1.50;;
37891;SDS011;45797;47.466;9.486;2022-11-20T15:32:20;2.45;;;1.65;;
37891;SDS011;45797;47.466;9.486;2022-11-20T15:37:23;8.95;;;5.93;;
37891;SDS011;45797;47.466;9.486;2022-11-20T15:42:25;8.43;;;5.45;;
37891;SDS011;45797;47.466;9.486;2022-11-20T15:47:29;317.25;;;73.75;;
37891;SDS011;45797;47.466;9.486;2022-11-20T15:52:40;8.60;;;4.03;;
37891;SDS011;45797;47.466;9.486;2022-11-20T15:57:52;2.70;;;1.45;;
37891;SDS011;45797;47.466;9.486;2022-11-20T16:02:53;2.38;;;1.25;;
37891;SDS011;45797;47.466;9.486;2022-11-20T16:12:58;7.32;;;2.10;;
37891;SDS011;45797;47.466;9.486;2022-11-20T16:18:18;1.80;;;1.13;;
37891;SDS011;45797;47.466;9.486;2022-11-20T16:23:20;1.63;;;0.98;;
37891;SDS011;45797;47.466;9.486;2022-11-20T16:28:23;1.88;;;0.90;;
37891;SDS011;45797;47.466;9.486;2022-11-20T16:33:23;1.85;;;1.02;;
37891;SDS011;45797;47.466;9.486;2022-11-20T16:38:31;1.92;;;0.88;;
37891;SDS011;45797;47.466;9.486;2022-11-20T16:43:33;2.42;;;0.98;;
37891;SDS011;45797;47.466;9.486;2022-11-20T16:48:35;0.95;;;0.65;;
37891;SDS011;45797;47.466;9.486;2022-11-20T16:53:36;1.88;;;0.95;;
37891;SDS011;45797;47.466;9.486;2022-11-20T17:03:43;1.60;;;0.90;;
37891;SDS011;45797;47.466;9.486;2022-11-20T17:08:46;1.80;;;0.80;;
37891;SDS011;45797;47.466;9.486;2022-11-20T17:13:48;1.83;;;0.80;;
37891;SDS011;45797;47.466;9.486;2022-11-20T17:18:55;1.52;;;0.88;;
37891;SDS011;45797;47.466;9.486;2022-11-20T17:23:59;1.95;;;0.80;;
37891;SDS011;45797;47.466;9.486;2022-11-20T17:34:10;2.00;;;1.00;;
37891;SDS011;45797;47.466;9.486;2022-11-20T17:39:13;5.68;;;1.90;;
37891;SDS011;45797;47.466;9.486;2022-11-20T17:44:14;1.88;;;1.00;;
37891;SDS011;45797;47.466;9.486;2022-11-20T17:49:15;1.50;;;0.73;;
37891;SDS011;45797;47.466;9.486;2022-11-20T17:54:16;0.98;;;0.63;;
37891;SDS011;45797;47.466;9.486;2022-11-20T18:04:24;2.13;;;0.90;;
37891;SDS011;45797;47.466;9.486;2022-11-20T18:09:26;1.45;;;0.70;;
37891;SDS011;45797;47.466;9.486;2022-11-20T18:14:33;1.45;;;0.68;;
37891;SDS011;45797;47.466;9.486;2022-11-20T18:19:44;1.90;;;0.90;;
37891;SDS011;45797;47.466;9.486;2022-11-20T18:29:52;2.80;;;0.80;;
37891;SDS011;45797;47.466;9.486;2022-11-20T18:34:52;1.38;;;0.70;;
37891;SDS011;45797;47.466;9.486;2022-11-20T18:39:54;1.40;;;0.70;;
37891;SDS011;45797;47.466;9.486;2022-11-20T18:45:03;1.20;;;0.57;;
37891;SDS011;45797;47.466;9.486;2022-11-20T18:50:05;1.30;;;0.70;;
37891;SDS011;45797;47.466;9.486;2022-11-20T18:55:07;1.10;;;0.63;;
37891;SDS011;45797;47.466;9.486;2022-11-20T19:00:27;1.40;;;0.68;;
37891;SDS011;45797;47.466;9.486;2022-11-20T19:05:27;3.47;;;0.80;;
37891;SDS011;45797;47.466;9.486;2022-11-20T19:10:46;1.60;;;0.70;;
37891;SDS011;45797;47.466;9.486;2022-11-20T19:31:21;1.17;;;0.60;;
37891;SDS011;45797;47.466;9.486;2022-11-20T19:36:26;1.42;;;0.60;;
37891;SDS011;45797;47.466;9.486;2022-11-20T19:41:40;1.88;;;0.73;;
37891;SDS011;45797;47.466;9.486;2022-11-20T19:46:42;1.38;;;0.70;;
37891;SDS011;45797;47.466;9.486;2022-11-20T19:51:47;1.40;;;0.70;;
37891;SDS011;45797;47.466;9.486;2022-11-20T19:56:50;1.38;;;0.60;;
37891;SDS011;45797;47.466;9.486;2022-11-20T20:01:51;2.50;;;0.90;;
37891;SDS011;45797;47.466;9.486;2022-11-20T20:07:02;1.60;;;0.80;;
37891;SDS011;45797;47.466;9.486;2022-11-20T20:12:06;1.27;;;0.70;;
37891;SDS011;45797;47.466;9.486;2022-11-20T20:22:11;1.52;;;0.70;;
37891;SDS011;45797;47.466;9.486;2022-11-20T20:32:24;1.50;;;0.80;;
37891;SDS011;45797;47.466;9.486;2022-11-20T20:42:49;1.15;;;0.60;;
37891;SDS011;45797;47.466;9.486;2022-11-20T20:47:57;1.38;;;0.73;;
37891;SDS011;45797;47.466;9.486;2022-11-20T20:52:59;0.95;;;0.52;;
37891;SDS011;45797;47.466;9.486;2022-11-20T20:58:02;1.25;;;0.63;;
37891;SDS011;45797;47.466;9.486;2022-11-20T21:03:03;1.10;;;0.60;;
37891;SDS011;45797;47.466;9.486;2022-11-20T21:13:33;0.90;;;0.50;;
37891;SDS011;45797;47.466;9.486;2022-11-20T21:18:36;1.77;;;0.70;;
37891;SDS011;45797;47.466;9.486;2022-11-20T21:23:36;0.85;;;0.50;;
37891;SDS011;45797;47.466;9.486;2022-11-20T21:28:36;1.25;;;0.60;;
37891;SDS011;45797;47.466;9.486;2022-11-20T21:33:42;0.90;;;0.50;;
37891;SDS011;45797;47.466;9.486;2022-11-20T21:38:46;0.73;;;0.50;;
37891;SDS011;45797;47.466;9.486;2022-11-20T21:43:50;0.63;;;0.40;;
37891;SDS011;45797;47.466;9.486;2022-11-20T21:48:59;1.23;;;0.57;;
37891;SDS011;45797;47.466;9.486;2022-11-20T21:59:20;0.73;;;0.40;;
37891;SDS011;45797;47.466;9.486;2022-11-20T22:04:23;1.00;;;0.50;;
37891;SDS011;45797;47.466;9.486;2022-11-20T22:09:23;0.60;;;0.40;;
37891;SDS011;45797;47.466;9.486;2022-11-20T22:14:23;0.40;;;0.30;;
37891;SDS011;45797;47.466;9.486;2022-11-20T22:19:23;0.85;;;0.35;;
37891;SDS011;45797;47.466;9.486;2022-11-20T22:24:31;0.52;;;0.40;;
37891;SDS011;45797;47.466;9.486;2022-11-20T22:29:31;0.40;;;0.40;;
37891;SDS011;45797;47.466;9.486;2022-11-20T22:34:31;0.77;;;0.50;;
37891;SDS011;45797;47.466;9.486;2022-11-20T22:39:33;0.82;;;0.52;;
37891;SDS011;45797;47.466;9.486;2022-11-20T22:44:35;0.50;;;0.45;;
37891;SDS011;45797;47.466;9.486;2022-11-20T22:54:39;0.50;;;0.40;;
37891;SDS011;45797;47.466;9.486;2022-11-20T22:59:40;0.30;;;0.30;;
37891;SDS011;45797;47.466;9.486;2022-11-20T23:04:52;0.55;;;0.40;;
37891;SDS011;45797;47.466;9.486;2022-11-20T23:10:02;0.75;;;0.50;;
37891;SDS011;45797;47.466;9.486;2022-11-20T23:15:02;0.30;;;0.30;;
37891;SDS011;45797;47.466;9.486;2022-11-20T23:25:17;0.30;;;0.30;;
37891;SDS011;45797;47.466;9.486;2022-11-20T23:35:28;0.47;;;0.40;;
37891;SDS011;45797;47.466;9.486;2022-11-20T23:40:28;1.20;;;0.40;;
37891;SDS011;45797;47.466;9.486;2022-11-20T23:45:28;0.52;;;0.40;;
37891;SDS011;45797;47.466;9.486;2022-11-20T23:50:30;0.47;;;0.40;;
